createdAt,value
2024-04-06T00:00:03.142Z,4.20
2024-04-06T00:01:03.088Z,4.50
2024-04-06T00:02:03.092Z,4.10
2024-04-06T00:03:03.070Z,4.00
2024-04-06T00:04:03.060Z,4.20
2024-04-06T00:05:03.053Z,4.20
2024-04-06T00:06:03.038Z,4.20
2024-04-06T00:07:03.033Z,4.00
2024-04-06T00:08:12.812Z,4.40
2024-04-06T00:09:04.031Z,4.50
2024-04-06T00:10:03.008Z,4.10
2024-04-06T00:11:02.982Z,4.10
2024-04-06T00:12:02.975Z,4.70
2024-04-06T00:13:02.960Z,4.10
2024-04-06T00:14:02.948Z,4.00
2024-04-06T00:15:02.935Z,4.30
2024-04-06T00:16:02.922Z,4.60
2024-04-06T00:17:02.915Z,4.30
2024-04-06T00:18:02.909Z,4.40
2024-04-06T00:19:02.890Z,4.60
2024-04-06T00:20:02.877Z,4.90
2024-04-06T00:21:02.870Z,5.40
2024-04-06T00:22:02.861Z,4.60
2024-04-06T00:23:02.848Z,5.00
2024-04-06T00:24:02.833Z,4.90
2024-04-06T00:25:02.840Z,5.00
2024-04-06T00:26:02.898Z,5.20
2024-04-06T00:27:02.858Z,5.10
2024-04-06T00:28:02.790Z,5.00
2024-04-06T00:29:02.778Z,4.90
2024-04-06T00:30:02.764Z,5.00
2024-04-06T00:31:02.903Z,5.00
2024-04-06T00:32:02.744Z,4.50
2024-04-06T00:33:02.740Z,4.70
2024-04-06T00:34:02.754Z,4.80
2024-04-06T00:35:02.712Z,5.30
2024-04-06T00:36:02.878Z,4.80
2024-04-06T00:37:02.692Z,5.00
2024-04-06T00:38:02.674Z,4.90
2024-04-06T00:39:02.765Z,5.10
2024-04-06T00:40:02.675Z,4.90
2024-04-06T00:41:02.646Z,5.00
2024-04-06T00:42:02.650Z,5.00
2024-04-06T00:43:02.885Z,4.80
2024-04-06T00:44:04.022Z,4.50
2024-04-06T00:45:02.614Z,4.20
2024-04-06T00:46:02.597Z,4.20
2024-04-06T00:47:02.582Z,3.90
2024-04-06T00:48:02.561Z,4.50
2024-04-06T00:49:02.561Z,4.60
2024-04-06T00:50:02.727Z,4.00
2024-04-06T00:51:02.529Z,4.30
2024-04-06T00:52:02.525Z,3.80
2024-04-06T00:53:02.520Z,3.30
2024-04-06T00:54:02.507Z,4.10
2024-04-06T00:55:02.493Z,4.00
2024-04-06T00:56:02.482Z,3.80
2024-04-06T00:57:02.484Z,3.40
2024-04-06T00:58:02.645Z,3.40
2024-04-06T00:59:02.454Z,3.40
2024-04-06T01:00:02.434Z,3.60
2024-04-06T01:01:02.590Z,4.10
2024-04-06T01:02:05.481Z,3.40
2024-04-06T01:03:02.400Z,3.50
2024-04-06T01:04:02.391Z,3.40
2024-04-06T01:05:02.366Z,3.60
2024-04-06T01:06:02.384Z,3.30
2024-04-06T01:07:02.349Z,3.60
2024-04-06T01:08:02.336Z,3.50
2024-04-06T01:09:02.324Z,3.50
2024-04-06T01:10:02.312Z,3.90
2024-04-06T01:11:02.309Z,2.80
2024-04-06T01:12:02.292Z,2.90
2024-04-06T01:13:02.284Z,3.20
2024-04-06T01:14:02.268Z,3.20
2024-04-06T01:15:02.259Z,3.00
2024-04-06T01:16:02.242Z,3.60
2024-04-06T01:17:02.235Z,3.40
2024-04-06T01:18:02.239Z,3.20
2024-04-06T01:19:02.214Z,3.00
2024-04-06T01:20:02.198Z,2.90
2024-04-06T01:21:02.202Z,3.30
2024-04-06T01:22:02.191Z,3.00
2024-04-06T01:23:02.182Z,3.30
2024-04-06T01:24:02.157Z,2.80
2024-04-06T01:25:02.144Z,3.30
2024-04-06T01:26:02.133Z,3.20
2024-04-06T01:27:02.136Z,3.50
2024-04-06T01:28:02.114Z,2.90
2024-04-06T01:29:02.099Z,3.10
2024-04-06T01:30:02.117Z,3.00
2024-04-06T01:31:02.086Z,2.80
2024-04-06T01:32:02.066Z,2.70
2024-04-06T01:33:02.052Z,2.80
2024-04-06T01:34:02.046Z,3.00
2024-04-06T01:35:02.034Z,2.90
2024-04-06T01:36:02.020Z,2.80
2024-04-06T01:37:02.033Z,3.00
2024-04-06T01:38:02.011Z,2.80
2024-04-06T01:39:01.991Z,3.30
2024-04-06T01:40:01.978Z,2.80
2024-04-06T01:41:01.965Z,2.90
2024-04-06T01:42:02.967Z,2.70
2024-04-06T01:43:01.957Z,2.90
2024-04-06T01:44:01.937Z,2.70
2024-04-06T01:45:01.916Z,2.70
2024-04-06T01:46:01.908Z,2.80
2024-04-06T01:47:01.898Z,2.60
2024-04-06T01:48:01.888Z,2.80
2024-04-06T01:49:01.872Z,2.40
2024-04-06T01:50:01.863Z,3.10
2024-04-06T01:51:01.853Z,2.50
2024-04-06T01:52:01.847Z,2.80
2024-04-06T01:53:01.856Z,2.90
2024-04-06T01:54:01.848Z,2.90
2024-04-06T01:55:01.810Z,2.50
2024-04-06T01:56:01.806Z,2.70
2024-04-06T01:57:01.793Z,2.70
2024-04-06T01:58:01.786Z,3.10
2024-04-06T01:59:01.785Z,2.80
2024-04-06T02:00:01.787Z,2.90
2024-04-06T02:01:01.757Z,2.90
2024-04-06T02:02:01.741Z,2.50
2024-04-06T02:03:01.738Z,2.90
2024-04-06T02:04:01.724Z,2.90
2024-04-06T02:05:01.723Z,2.80
2024-04-06T02:06:01.693Z,2.50
2024-04-06T02:07:01.699Z,2.70
2024-04-06T02:08:01.676Z,3.10
2024-04-06T02:09:01.670Z,2.90
2024-04-06T02:10:01.670Z,3.20
2024-04-06T02:11:01.631Z,3.40
2024-04-06T02:12:01.631Z,2.90
2024-04-06T02:13:01.621Z,2.90
2024-04-06T02:14:01.606Z,2.90
2024-04-06T02:15:01.591Z,2.70
2024-04-06T02:16:01.588Z,3.20
2024-04-06T02:17:01.570Z,2.80
2024-04-06T02:18:01.564Z,2.90
2024-04-06T02:19:01.560Z,3.10
2024-04-06T02:20:01.537Z,2.90
2024-04-06T02:21:01.532Z,2.90
2024-04-06T02:22:01.529Z,3.40
2024-04-06T02:23:01.495Z,2.90
2024-04-06T02:24:01.484Z,3.00
2024-04-06T02:25:01.494Z,3.60
2024-04-06T02:26:01.474Z,2.60
2024-04-06T02:27:01.450Z,2.70
2024-04-06T02:28:01.441Z,3.00
2024-04-06T02:29:01.427Z,2.80
2024-04-06T02:30:01.422Z,2.80
2024-04-06T02:31:01.406Z,3.00
2024-04-06T02:32:01.397Z,3.00
2024-04-06T02:33:01.381Z,2.80
2024-04-06T02:34:01.368Z,3.10
2024-04-06T02:35:01.357Z,3.20
2024-04-06T02:36:01.347Z,2.80
2024-04-06T02:37:01.338Z,3.10
2024-04-06T02:38:01.325Z,3.20
2024-04-06T02:39:01.313Z,2.90
2024-04-06T02:40:01.305Z,3.10
2024-04-06T02:41:01.292Z,3.20
2024-04-06T02:42:01.304Z,3.00
2024-04-06T02:43:01.266Z,3.40
2024-04-06T02:44:01.257Z,3.20
2024-04-06T02:45:01.249Z,3.20
2024-04-06T02:46:01.234Z,3.00
2024-04-06T02:47:01.223Z,3.00
2024-04-06T02:48:01.214Z,3.20
2024-04-06T02:49:01.201Z,3.20
2024-04-06T02:50:01.212Z,3.40
2024-04-06T02:51:01.185Z,3.30
2024-04-06T02:52:01.186Z,3.70
2024-04-06T02:53:01.154Z,3.00
2024-04-06T02:54:01.166Z,3.00
2024-04-06T02:55:01.128Z,3.60
2024-04-06T02:56:01.145Z,3.40
2024-04-06T02:57:01.180Z,3.30
2024-04-06T02:58:01.140Z,3.10
2024-04-06T02:59:01.095Z,3.20
2024-04-06T03:00:01.174Z,3.40
2024-04-06T03:01:01.062Z,3.10
2024-04-06T03:02:01.049Z,3.50
2024-04-06T03:03:01.041Z,3.70
2024-04-06T03:04:01.031Z,3.20
2024-04-06T03:05:01.020Z,3.40
2024-04-06T03:06:01.007Z,3.00
2024-04-06T03:07:01.000Z,3.20
2024-04-06T03:08:00.986Z,3.20
2024-04-06T03:09:00.975Z,3.50
2024-04-06T03:10:00.960Z,4.00
2024-04-06T03:11:00.951Z,3.30
2024-04-06T03:12:00.941Z,3.50
2024-04-06T03:13:00.930Z,3.60
2024-04-06T03:14:00.937Z,3.70
2024-04-06T03:15:00.900Z,3.40
2024-04-06T03:16:00.895Z,3.10
2024-04-06T03:17:00.885Z,3.40
2024-04-06T03:18:00.872Z,3.40
2024-04-06T03:19:00.865Z,3.50
2024-04-06T03:20:00.847Z,3.30
2024-04-06T03:21:00.841Z,3.30
2024-04-06T03:22:00.826Z,3.20
2024-04-06T03:23:00.813Z,3.50
2024-04-06T03:24:00.804Z,3.20
2024-04-06T03:25:00.787Z,3.60
2024-04-06T03:26:00.783Z,3.40
2024-04-06T03:27:00.771Z,3.10
2024-04-06T03:28:00.769Z,3.20
2024-04-06T03:29:00.752Z,3.30
2024-04-06T03:30:00.767Z,3.40
2024-04-06T03:31:00.720Z,3.60
2024-04-06T03:32:00.720Z,3.50
2024-04-06T03:33:00.705Z,3.00
2024-04-06T03:34:00.694Z,3.50
2024-04-06T03:35:00.691Z,3.40
2024-04-06T03:36:00.846Z,4.40
2024-04-06T03:37:00.930Z,3.50
2024-04-06T03:38:00.942Z,3.40
2024-04-06T03:39:00.643Z,3.40
2024-04-06T03:40:00.630Z,3.10
2024-04-06T03:41:00.625Z,3.20
2024-04-06T03:42:00.892Z,3.10
2024-04-06T03:43:00.595Z,3.80
2024-04-06T03:44:00.602Z,3.50
2024-04-06T03:45:00.597Z,3.80
2024-04-06T03:46:00.570Z,3.50
2024-04-06T03:47:00.540Z,3.70
2024-04-06T03:48:00.535Z,3.80
2024-04-06T03:49:00.560Z,3.50
2024-04-06T03:50:00.538Z,4.20
2024-04-06T03:51:00.501Z,3.80
2024-04-06T03:52:00.522Z,3.90
2024-04-06T03:53:00.498Z,3.70
2024-04-06T03:54:00.463Z,3.70
2024-04-06T03:55:00.996Z,3.70
2024-04-06T03:56:00.560Z,3.80
2024-04-06T03:57:00.449Z,3.90
2024-04-06T03:58:00.422Z,3.50
2024-04-06T03:59:00.406Z,4.10
2024-04-06T04:00:00.396Z,3.50
2024-04-06T04:01:00.383Z,3.30
2024-04-06T04:02:00.384Z,4.00
2024-04-06T04:03:00.362Z,3.80
2024-04-06T04:04:00.352Z,4.10
2024-04-06T04:05:00.340Z,3.40
2024-04-06T04:06:00.329Z,3.90
2024-04-06T04:07:00.315Z,3.80
2024-04-06T04:08:00.303Z,3.50
2024-04-06T04:09:00.299Z,3.70
2024-04-06T04:10:00.288Z,3.60
2024-04-06T04:11:00.319Z,3.70
2024-04-06T04:12:00.266Z,3.90
2024-04-06T04:13:00.277Z,3.80
2024-04-06T04:14:00.242Z,3.90
2024-04-06T04:15:00.231Z,3.80
2024-04-06T04:16:00.226Z,3.80
2024-04-06T04:17:00.203Z,4.10
2024-04-06T04:18:00.208Z,3.80
2024-04-06T04:19:00.174Z,3.90
2024-04-06T04:20:00.253Z,4.10
2024-04-06T04:21:00.162Z,3.70
2024-04-06T04:22:00.174Z,4.00
2024-04-06T04:23:00.136Z,4.10
2024-04-06T04:24:00.135Z,3.90
2024-04-06T04:25:00.216Z,4.00
2024-04-06T04:26:00.120Z,4.10
2024-04-06T04:27:00.086Z,3.80
2024-04-06T04:28:00.078Z,4.00
2024-04-06T04:29:00.068Z,4.00
2024-04-06T04:30:00.056Z,3.70
2024-04-06T04:31:00.044Z,3.80
2024-04-06T04:32:00.048Z,4.20
2024-04-06T04:33:00.017Z,4.10
2024-04-06T04:34:00.038Z,4.40
2024-04-06T04:35:00.002Z,4.20
2024-04-06T04:35:59.996Z,4.00
2024-04-06T04:36:59.980Z,5.00
2024-04-06T04:37:59.983Z,4.20
2024-04-06T04:38:59.955Z,4.50
2024-04-06T04:39:59.945Z,4.50
2024-04-06T04:40:59.929Z,4.50
2024-04-06T04:41:59.921Z,4.40
2024-04-06T04:42:59.907Z,5.10
2024-04-06T04:44:01.520Z,5.00
2024-04-06T04:45:00.319Z,4.70
2024-04-06T04:45:59.873Z,4.50
2024-04-06T04:46:59.861Z,4.40
2024-04-06T04:47:59.851Z,5.00
2024-04-06T04:48:59.843Z,4.10
2024-04-06T04:49:59.855Z,3.90
2024-04-06T04:50:59.823Z,4.80
2024-04-06T04:51:59.816Z,4.30
2024-04-06T04:52:59.801Z,4.60
2024-04-06T04:53:59.804Z,4.40
2024-04-06T04:54:59.773Z,4.60
2024-04-06T04:55:59.762Z,4.30
2024-04-06T04:56:59.763Z,4.60
2024-04-06T04:57:59.745Z,4.60
2024-04-06T04:58:59.730Z,4.40
2024-04-06T04:59:59.722Z,4.70
2024-04-06T05:00:59.707Z,4.70
2024-04-06T05:01:59.700Z,4.70
2024-04-06T05:02:59.682Z,4.20
2024-04-06T05:03:59.670Z,4.50
2024-04-06T05:04:59.660Z,4.50
2024-04-06T05:05:59.658Z,5.10
2024-04-06T05:06:59.634Z,4.50
2024-04-06T05:07:59.652Z,4.60
2024-04-06T05:08:59.613Z,4.50
2024-04-06T05:09:59.613Z,5.20
2024-04-06T05:10:59.603Z,4.70
2024-04-06T05:11:59.585Z,4.70
2024-04-06T05:12:59.571Z,4.50
2024-04-06T05:13:59.563Z,4.70
2024-04-06T05:14:59.547Z,5.20
2024-04-06T05:15:59.534Z,5.00
2024-04-06T05:16:59.533Z,5.10
2024-04-06T05:17:59.532Z,5.30
2024-04-06T05:18:59.504Z,5.60
2024-04-06T05:19:59.494Z,5.00
2024-04-06T05:20:59.478Z,7.10
2024-04-06T05:21:59.485Z,6.20
2024-04-06T05:22:59.455Z,5.90
2024-04-06T05:23:59.448Z,6.00
2024-04-06T05:24:59.445Z,6.40
2024-04-06T05:25:59.421Z,6.30
2024-04-06T05:26:59.415Z,6.20
2024-04-06T05:27:59.400Z,5.90
2024-04-06T05:28:59.389Z,5.90
2024-04-06T05:29:59.390Z,6.50
2024-04-06T05:30:59.369Z,6.60
2024-04-06T05:31:59.365Z,6.30
2024-04-06T05:32:59.338Z,6.30
2024-04-06T05:33:59.335Z,6.40
2024-04-06T05:34:59.320Z,7.20
2024-04-06T05:36:02.591Z,7.00
2024-04-06T05:36:59.296Z,7.30
2024-04-06T05:37:59.315Z,8.40
2024-04-06T05:38:59.275Z,7.40
2024-04-06T05:39:59.281Z,9.80
2024-04-06T05:40:59.426Z,8.50
2024-04-06T05:41:59.239Z,9.00
2024-04-06T05:42:59.233Z,9.20
2024-04-06T05:43:59.222Z,8.40
2024-04-06T05:44:59.209Z,8.50
2024-04-06T05:45:59.197Z,8.60
2024-04-06T05:46:59.190Z,8.00
2024-04-06T05:47:59.178Z,8.00
2024-04-06T05:48:59.168Z,8.30
2024-04-06T05:49:59.154Z,8.10
2024-04-06T05:50:59.148Z,8.00
2024-04-06T05:51:59.143Z,7.50
2024-04-06T05:52:59.140Z,7.90
2024-04-06T05:53:59.135Z,7.80
2024-04-06T05:54:59.123Z,8.00
2024-04-06T05:55:59.108Z,7.10
2024-04-06T05:56:59.118Z,7.40
2024-04-06T05:57:59.087Z,6.80
2024-04-06T05:58:59.052Z,7.20
2024-04-06T05:59:59.039Z,6.80
2024-04-06T06:00:59.030Z,6.60
2024-04-06T06:01:59.018Z,6.20
2024-04-06T06:02:59.005Z,6.00
2024-04-06T06:03:58.995Z,6.40
2024-04-06T06:04:58.987Z,6.00
2024-04-06T06:05:58.981Z,5.70
2024-04-06T06:06:58.966Z,6.20
2024-04-06T06:07:58.947Z,5.80
2024-04-06T06:08:58.941Z,5.90
2024-04-06T06:09:58.941Z,5.60
2024-04-06T06:10:58.929Z,5.40
2024-04-06T06:11:58.900Z,6.10
2024-04-06T06:12:58.894Z,5.30
2024-04-06T06:13:58.882Z,6.30
2024-04-06T06:14:58.871Z,6.10
2024-04-06T06:15:58.874Z,6.10
2024-04-06T06:16:58.848Z,7.70
2024-04-06T06:17:58.838Z,6.90
2024-04-06T06:18:58.847Z,8.00
2024-04-06T06:19:58.816Z,7.40
2024-04-06T06:20:58.805Z,8.60
2024-04-06T06:21:58.791Z,9.30
2024-04-06T06:22:58.780Z,8.30
2024-04-06T06:23:58.779Z,8.20
2024-04-06T06:24:58.755Z,8.50
2024-04-06T06:25:58.754Z,8.60
2024-04-06T06:26:58.745Z,8.20
2024-04-06T06:27:58.737Z,8.30
2024-04-06T06:28:58.713Z,8.00
2024-04-06T06:29:58.700Z,8.20
2024-04-06T06:30:58.687Z,7.60
2024-04-06T06:31:58.674Z,8.30
2024-04-06T06:32:58.664Z,8.90
2024-04-06T06:33:58.654Z,8.50
2024-04-06T06:34:58.692Z,8.20
2024-04-06T06:37:58.835Z,7.10
2024-04-06T06:40:58.583Z,6.70
2024-04-06T06:41:58.692Z,6.30
2024-04-06T06:42:58.581Z,5.90
2024-04-06T06:43:58.557Z,6.00
2024-04-06T06:44:58.537Z,5.80
2024-04-06T06:45:58.530Z,5.20
2024-04-06T06:46:58.505Z,5.80
2024-04-06T06:47:58.497Z,5.50
2024-04-06T06:48:58.486Z,5.80
2024-04-06T06:49:58.503Z,5.20
2024-04-06T06:50:58.468Z,5.50
2024-04-06T06:51:58.461Z,6.00
2024-04-06T06:52:58.443Z,5.60
2024-04-06T06:53:58.430Z,5.20
2024-04-06T06:54:58.472Z,5.30
2024-04-06T06:55:58.408Z,4.90
2024-04-06T06:56:58.416Z,5.00
2024-04-06T06:57:58.410Z,5.50
2024-04-06T06:58:58.375Z,5.30
2024-04-06T07:00:58.372Z,5.30
2024-04-06T07:01:58.340Z,5.30
2024-04-06T07:02:58.330Z,5.20
2024-04-06T07:03:58.418Z,5.80
2024-04-06T07:04:58.314Z,5.60
2024-04-06T07:05:58.322Z,5.60
2024-04-06T07:07:58.282Z,5.50
2024-04-06T07:09:58.255Z,5.10
2024-04-06T07:10:58.320Z,4.90
2024-04-06T07:11:58.248Z,4.60
2024-04-06T07:12:58.220Z,4.40
2024-04-06T07:13:58.230Z,4.80
2024-04-06T07:14:58.200Z,4.50
2024-04-06T07:15:58.188Z,4.70
2024-04-06T07:16:58.191Z,4.80
2024-04-06T07:17:58.176Z,4.40
2024-04-06T07:18:58.164Z,4.10
2024-04-06T07:19:58.139Z,4.60
2024-04-06T07:20:58.139Z,3.70
2024-04-06T07:21:58.116Z,4.10
2024-04-06T07:22:58.112Z,4.10
2024-04-06T07:23:58.104Z,4.00
2024-04-06T07:24:58.087Z,4.50
2024-04-06T07:25:58.076Z,3.90
2024-04-06T07:26:58.075Z,3.90
2024-04-06T07:27:58.079Z,4.10
2024-04-06T07:28:58.058Z,4.00
2024-04-06T07:29:58.037Z,4.30
2024-04-06T07:30:58.019Z,4.50
2024-04-06T07:31:58.026Z,4.90
2024-04-06T07:32:57.994Z,5.40
2024-04-06T07:33:57.990Z,4.90
2024-04-06T07:34:57.978Z,4.40
2024-04-06T07:35:57.974Z,4.50
2024-04-06T07:36:57.958Z,4.20
2024-04-06T07:37:57.942Z,4.10
2024-04-06T07:39:57.942Z,3.90
2024-04-06T07:40:57.919Z,4.10
2024-04-06T07:41:57.899Z,3.40
2024-04-06T07:42:57.889Z,3.40
2024-04-06T07:43:57.893Z,3.30
2024-04-06T07:44:57.864Z,3.70
2024-04-06T07:45:57.870Z,3.20
2024-04-06T07:46:57.861Z,3.40
2024-04-06T07:47:57.855Z,2.90
2024-04-06T07:48:57.825Z,3.60
2024-04-06T07:49:57.827Z,3.50
2024-04-06T07:50:57.798Z,3.10
2024-04-06T07:51:57.784Z,2.90
2024-04-06T07:52:57.773Z,3.10
2024-04-06T07:53:57.767Z,3.20
2024-04-06T07:54:57.763Z,3.50
2024-04-06T07:55:57.748Z,3.20
2024-04-06T07:56:57.726Z,3.20
2024-04-06T07:57:57.717Z,3.10
2024-04-06T07:58:57.718Z,2.90
2024-04-06T07:59:57.701Z,2.90
2024-04-06T08:00:57.684Z,2.80
2024-04-06T08:01:57.697Z,2.90
2024-04-06T08:02:57.674Z,2.60
2024-04-06T08:03:57.662Z,2.90
2024-04-06T08:04:57.645Z,3.10
2024-04-06T08:05:57.626Z,3.40
2024-04-06T08:06:57.636Z,3.20
2024-04-06T08:07:57.604Z,3.40
2024-04-06T08:08:57.601Z,3.20
2024-04-06T08:09:57.587Z,3.40
2024-04-06T08:10:57.585Z,3.60
2024-04-06T08:11:57.565Z,3.90
2024-04-06T08:12:57.554Z,3.70
2024-04-06T08:13:57.539Z,3.80
2024-04-06T08:14:57.531Z,3.60
2024-04-06T08:15:57.516Z,4.20
2024-04-06T08:16:57.518Z,4.10
2024-04-06T08:17:57.520Z,4.40
2024-04-06T08:18:57.485Z,4.40
2024-04-06T08:19:57.493Z,3.70
2024-04-06T08:20:57.463Z,3.60
2024-04-06T08:21:57.450Z,3.10
2024-04-06T08:22:57.439Z,2.90
2024-04-06T08:23:57.439Z,2.80
2024-04-06T08:24:57.416Z,2.60
2024-04-06T08:25:57.409Z,2.90
2024-04-06T08:26:57.408Z,2.70
2024-04-06T08:27:57.391Z,2.30
2024-04-06T08:28:57.378Z,2.60
2024-04-06T08:29:57.382Z,2.60
2024-04-06T08:30:57.364Z,2.90
2024-04-06T08:31:57.347Z,2.90
2024-04-06T08:32:58.776Z,2.40
2024-04-06T08:33:57.339Z,2.40
2024-04-06T08:34:57.313Z,2.60
2024-04-06T08:35:57.300Z,2.70
2024-04-06T08:36:57.309Z,2.20
2024-04-06T08:37:57.288Z,2.20
2024-04-06T08:38:57.265Z,2.40
2024-04-06T08:39:57.258Z,2.40
2024-04-06T08:40:57.245Z,2.50
2024-04-06T08:41:57.234Z,2.10
2024-04-06T08:42:57.223Z,2.00
2024-04-06T08:43:57.210Z,2.20
2024-04-06T08:44:57.196Z,2.50
2024-04-06T08:45:57.340Z,2.10
2024-04-06T08:46:57.177Z,1.90
2024-04-06T08:47:57.162Z,2.20
2024-04-06T08:48:57.156Z,2.50
2024-04-06T08:49:57.154Z,2.20
2024-04-06T08:50:57.132Z,2.30
2024-04-06T08:51:57.130Z,2.60
2024-04-06T08:52:57.122Z,2.10
2024-04-06T08:53:57.102Z,3.00
2024-04-06T08:54:57.094Z,2.70
2024-04-06T08:55:57.079Z,2.50
2024-04-06T08:56:57.070Z,4.30
2024-04-06T08:57:57.059Z,3.20
2024-04-06T08:58:57.053Z,3.20
2024-04-06T08:59:57.034Z,2.30
2024-04-06T09:00:57.030Z,1.90
2024-04-06T09:01:57.018Z,1.90
2024-04-06T09:02:57.006Z,1.90
2024-04-06T09:03:56.995Z,1.80
2024-04-06T09:04:56.987Z,1.80
2024-04-06T09:05:56.983Z,2.10
2024-04-06T09:06:56.961Z,1.80
2024-04-06T09:07:56.952Z,1.90
2024-04-06T09:08:56.943Z,1.70
2024-04-06T09:09:56.930Z,1.80
2024-04-06T09:10:56.935Z,1.60
2024-04-06T09:11:56.906Z,2.00
2024-04-06T09:12:56.895Z,1.80
2024-04-06T09:13:56.883Z,1.60
2024-04-06T09:14:56.876Z,1.70
2024-04-06T09:15:56.858Z,1.70
2024-04-06T09:16:56.849Z,1.60
2024-04-06T09:17:56.839Z,1.60
2024-04-06T09:18:56.830Z,1.80
2024-04-06T09:19:56.817Z,1.50
2024-04-06T09:20:56.814Z,1.70
2024-04-06T09:21:56.847Z,1.80
2024-04-06T09:22:56.785Z,1.80
2024-04-06T09:23:56.775Z,1.40
2024-04-06T09:24:56.779Z,1.60
2024-04-06T09:25:56.760Z,1.50
2024-04-06T09:26:56.748Z,1.60
2024-04-06T09:27:56.755Z,1.70
2024-04-06T09:28:56.725Z,1.70
2024-04-06T09:29:56.712Z,1.60
2024-04-06T09:30:56.712Z,1.50
2024-04-06T09:31:56.700Z,1.80
2024-04-06T09:32:56.687Z,1.50
2024-04-06T09:33:56.674Z,1.50
2024-04-06T09:34:56.667Z,1.90
2024-04-06T09:35:56.650Z,1.40
2024-04-06T09:36:56.646Z,1.50
2024-04-06T09:37:56.652Z,1.70
2024-04-06T09:38:56.671Z,1.40
2024-04-06T09:39:56.606Z,1.40
2024-04-06T09:40:56.647Z,1.30
2024-04-06T09:41:56.594Z,1.40
2024-04-06T09:42:56.576Z,1.40
2024-04-06T09:43:56.569Z,1.30
2024-04-06T09:44:56.557Z,1.60
2024-04-06T09:45:56.543Z,1.30
2024-04-06T09:46:56.536Z,1.30
2024-04-06T09:47:56.525Z,1.20
2024-04-06T09:48:56.515Z,1.20
2024-04-06T09:49:56.518Z,1.20
2024-04-06T09:50:56.492Z,1.20
2024-04-06T09:51:56.495Z,1.40
2024-04-06T09:52:56.496Z,1.40
2024-04-06T09:53:56.481Z,1.30
2024-04-06T09:54:56.460Z,1.30
2024-04-06T09:55:56.434Z,1.20
2024-04-06T09:56:56.449Z,1.40
2024-04-06T09:57:56.419Z,1.40
2024-04-06T09:58:56.404Z,1.20
2024-04-06T09:59:58.171Z,1.40
2024-04-06T10:00:56.383Z,1.30
2024-04-06T10:01:56.371Z,1.30
2024-04-06T10:02:56.360Z,1.40
2024-04-06T10:03:56.351Z,1.20
2024-04-06T10:04:56.340Z,1.20
2024-04-06T10:05:56.331Z,1.30
2024-04-06T10:06:56.318Z,1.20
2024-04-06T10:07:56.313Z,2.20
2024-04-06T10:08:56.305Z,1.30
2024-04-06T10:09:56.307Z,1.20
2024-04-06T10:10:56.275Z,1.30
2024-04-06T10:11:56.267Z,1.40
2024-04-06T10:12:56.259Z,1.40
2024-04-06T10:13:56.284Z,1.20
2024-04-06T10:14:56.234Z,1.40
2024-04-06T10:15:56.227Z,2.10
2024-04-06T10:16:56.217Z,1.50
2024-04-06T10:17:56.203Z,1.00
2024-04-06T10:18:56.195Z,1.00
2024-04-06T10:19:58.893Z,1.20
2024-04-06T10:20:56.183Z,1.00
2024-04-06T10:21:56.164Z,1.10
2024-04-06T10:22:56.161Z,1.20
2024-04-06T10:23:56.155Z,1.00
2024-04-06T10:24:56.131Z,1.20
2024-04-06T10:25:58.281Z,0.90
2024-04-06T10:26:56.121Z,0.90
2024-04-06T10:27:56.102Z,0.90
2024-04-06T10:28:56.102Z,1.00
2024-04-06T10:29:56.091Z,1.00
2024-04-06T10:30:56.067Z,1.20
2024-04-06T10:31:56.093Z,1.30
2024-04-06T10:32:56.054Z,0.90
2024-04-06T10:33:56.039Z,0.90
2024-04-06T10:34:56.030Z,0.90
2024-04-06T10:35:56.015Z,1.00
2024-04-06T10:36:57.753Z,1.00
2024-04-06T10:37:55.996Z,1.10
2024-04-06T10:38:56.134Z,0.80
2024-04-06T10:39:55.970Z,0.90
2024-04-06T10:40:55.963Z,0.80
2024-04-06T10:41:55.982Z,1.00
2024-04-06T10:42:55.938Z,0.80
2024-04-06T10:43:55.928Z,0.80
2024-04-06T10:44:55.916Z,1.00
2024-04-06T10:45:55.911Z,0.90
2024-04-06T10:46:55.894Z,0.80
2024-04-06T10:47:55.902Z,1.00
2024-04-06T10:48:55.876Z,1.10
2024-04-06T10:49:55.867Z,1.10
2024-04-06T10:50:55.859Z,1.10
2024-04-06T10:51:55.843Z,1.20
2024-04-06T10:52:55.834Z,1.20
2024-04-06T10:53:55.822Z,1.00
2024-04-06T10:54:55.821Z,1.10
2024-04-06T10:55:55.802Z,1.10
2024-04-06T10:56:55.792Z,1.20
2024-04-06T10:57:55.817Z,1.10
2024-04-06T10:58:55.770Z,0.80
2024-04-06T10:59:55.763Z,1.00
2024-04-06T11:00:55.762Z,0.70
2024-04-06T11:01:55.748Z,1.20
2024-04-06T11:02:55.733Z,1.00
2024-04-06T11:03:55.734Z,0.90
2024-04-06T11:04:55.744Z,1.00
2024-04-06T11:05:55.700Z,0.80
2024-04-06T11:06:55.698Z,0.90
2024-04-06T11:07:55.691Z,0.90
2024-04-06T11:08:55.661Z,1.10
2024-04-06T11:09:55.652Z,0.90
2024-04-06T11:10:55.642Z,1.00
2024-04-06T11:11:55.628Z,1.30
2024-04-06T11:12:55.651Z,0.90
2024-04-06T11:13:55.625Z,0.80
2024-04-06T11:14:55.598Z,0.90
2024-04-06T11:15:55.596Z,0.90
2024-04-06T11:16:55.573Z,0.90
2024-04-06T11:17:55.565Z,0.80
2024-04-06T11:18:55.552Z,0.90
2024-04-06T11:19:55.546Z,0.80
2024-04-06T11:20:55.543Z,1.00
2024-04-06T11:21:55.539Z,1.00
2024-04-06T11:22:55.509Z,1.00
2024-04-06T11:23:55.500Z,1.00
2024-04-06T11:24:55.490Z,1.20
2024-04-06T11:25:55.482Z,0.80
2024-04-06T11:26:55.474Z,1.10
2024-04-06T11:27:55.460Z,0.90
2024-04-06T11:28:55.444Z,1.00
2024-04-06T11:29:55.454Z,1.00
2024-04-06T11:30:55.456Z,1.00
2024-04-06T11:31:55.417Z,0.90
2024-04-06T11:32:55.425Z,0.90
2024-04-06T11:33:55.395Z,1.00
2024-04-06T11:34:55.383Z,1.00
2024-04-06T11:35:55.383Z,1.00
2024-04-06T11:36:55.361Z,1.00
2024-04-06T11:37:55.349Z,1.10
2024-04-06T11:38:55.358Z,1.00
2024-04-06T11:39:55.330Z,0.90
2024-04-06T11:40:55.314Z,1.40
2024-04-06T11:41:55.308Z,0.90
2024-04-06T11:42:55.292Z,1.10
2024-04-06T11:43:55.285Z,0.90
2024-04-06T11:44:55.278Z,1.20
2024-04-06T11:45:55.284Z,1.20
2024-04-06T11:46:55.251Z,1.00
2024-04-06T11:47:55.294Z,1.10
2024-04-06T11:48:55.271Z,1.30
2024-04-06T11:49:55.222Z,1.10
2024-04-06T11:50:55.217Z,1.10
2024-04-06T11:51:55.210Z,1.30
2024-04-06T11:52:55.193Z,1.00
2024-04-06T11:53:55.180Z,1.10
2024-04-06T11:54:55.187Z,0.90
2024-04-06T11:55:55.161Z,1.00
2024-04-06T11:56:55.149Z,1.10
2024-04-06T11:57:55.144Z,1.00
2024-04-06T11:58:55.133Z,1.10
2024-04-06T11:59:55.113Z,1.00
2024-04-06T12:00:55.107Z,1.00
2024-04-06T12:01:55.152Z,1.10
2024-04-06T12:02:55.113Z,1.20
2024-04-06T12:03:55.083Z,1.00
2024-04-06T12:04:55.075Z,1.00
2024-04-06T12:05:58.200Z,0.90
2024-04-06T12:06:55.047Z,1.20
2024-04-06T12:07:55.049Z,1.40
2024-04-06T12:08:55.030Z,1.30
2024-04-06T12:09:55.018Z,1.10
2024-04-06T12:10:55.024Z,1.20
2024-04-06T12:11:57.299Z,1.20
2024-04-06T12:12:54.983Z,1.10
2024-04-06T12:13:54.987Z,1.20
2024-04-06T12:14:54.977Z,1.20
2024-04-06T12:15:54.955Z,1.10
2024-04-06T12:16:54.945Z,1.00
2024-04-06T12:17:56.229Z,1.10
2024-04-06T12:18:54.935Z,1.10
2024-04-06T12:19:54.943Z,1.20
2024-04-06T12:20:54.902Z,1.00
2024-04-06T12:21:54.901Z,1.20
2024-04-06T12:22:54.875Z,1.10
2024-04-06T12:23:54.870Z,1.00
2024-04-06T12:24:54.871Z,1.10
2024-04-06T12:25:54.869Z,0.90
2024-04-06T12:26:54.835Z,1.30
2024-04-06T12:27:54.841Z,1.30
2024-04-06T12:28:54.836Z,1.10
2024-04-06T12:29:54.811Z,1.20
2024-04-06T12:30:54.794Z,1.10
2024-04-06T12:31:54.796Z,1.10
2024-04-06T12:32:54.783Z,1.00
2024-04-06T12:33:55.639Z,1.00
2024-04-06T12:34:54.755Z,1.10
2024-04-06T12:35:54.747Z,1.10
2024-04-06T12:36:54.762Z,1.00
2024-04-06T12:37:54.731Z,1.10
2024-04-06T12:38:54.721Z,1.10
2024-04-06T12:39:54.714Z,1.00
2024-04-06T12:40:54.695Z,1.00
2024-04-06T12:41:54.692Z,0.90
2024-04-06T12:42:54.679Z,1.20
2024-04-06T12:43:54.679Z,1.00
2024-04-06T12:44:54.674Z,1.10
2024-04-06T12:45:54.643Z,1.10
2024-04-06T12:46:54.658Z,1.30
2024-04-06T12:47:54.634Z,0.90
2024-04-06T12:48:54.611Z,1.20
2024-04-06T12:49:54.662Z,0.90
2024-04-06T12:50:54.595Z,1.50
2024-04-06T12:51:54.592Z,1.20
2024-04-06T12:52:54.568Z,1.10
2024-04-06T12:53:54.555Z,1.20
2024-04-06T12:54:54.550Z,1.20
2024-04-06T12:55:54.541Z,1.10
2024-04-06T12:56:54.527Z,1.30
2024-04-06T12:57:54.516Z,1.20
2024-04-06T12:58:54.502Z,1.10
2024-04-06T12:59:54.602Z,1.20
2024-04-06T13:00:54.478Z,1.30
2024-04-06T13:01:54.485Z,1.00
2024-04-06T13:02:54.466Z,1.10
2024-04-06T13:04:03.518Z,1.30
2024-04-06T13:04:55.483Z,1.20
2024-04-06T13:05:54.457Z,1.40
2024-04-06T13:06:54.415Z,1.10
2024-04-06T13:07:56.472Z,1.20
2024-04-06T13:08:54.401Z,1.20
2024-04-06T13:09:54.382Z,1.00
2024-04-06T13:10:54.371Z,1.20
2024-04-06T13:11:54.369Z,1.30
2024-04-06T13:12:54.359Z,1.40
2024-04-06T13:13:55.174Z,1.40
2024-04-06T13:14:54.332Z,1.20
2024-04-06T13:15:54.331Z,1.30
2024-04-06T13:16:54.312Z,1.30
2024-04-06T13:17:54.298Z,1.00
2024-04-06T13:18:54.293Z,1.10
2024-04-06T13:19:54.284Z,1.10
2024-04-06T13:20:54.270Z,1.10
2024-04-06T13:21:54.279Z,1.10
2024-04-06T13:22:54.254Z,1.30
2024-04-06T13:23:54.236Z,1.30
2024-04-06T13:24:54.222Z,1.20
2024-04-06T13:25:55.042Z,1.10